Погода Гуероуна 2 недели

Трарза, Мавритания

22 июля-04 августа
  • 22июля
    Сегодня
    +30°
    +39°
    Облачно с прояснениями
    ВремяПогодаТемператураВлажностьДавлениеВетер, м/сВероятность осадков
    00:00Ясно и безоблачно+34°C54 %752 мм6.4 м/с2 %
    03:00Ясно и безоблачно+33°C63 %751 мм6.2 м/с2 %
    06:00Ясно и безоблачно+31°C69 %752 мм5.2 м/с2 %
    09:00Ясно и безоблачно+31°C59 %754 мм5.5 м/с2 %
    12:00Практически безоблачно+34°C45 %753 мм5.0 м/с2 %
    15:00Облачно с прояснениями+37°C34 %751 мм3.6 м/с2 %
    18:00Практически безоблачно+37°C36 %750 мм2.7 м/с2 %
    21:00Практически безоблачно+36°C42 %753 мм4.8 м/с2 %
  • 23июля
    Вторник
    +28°
    +36°
    Облачно с прояснениями
    ВремяПогодаТемператураВлажностьДавлениеВетер, м/сВероятность осадков
    00:00Ясно и безоблачно+34°C51 %754 мм5.9 м/с2 %
    03:00Небольшая облачность+33°C55 %753 мм4.8 м/с12 %
    06:00Небольшая облачность+31°C71 %754 мм3.8 м/с33 %
    09:00Пасмурно, сплошная облачность+30°C62 %755 мм3.9 м/с50 %
    12:00Пасмурно, сплошная облачность+33°C57 %755 мм2.0 м/с39 %
    15:00Облачно с прояснениями+35°C51 %753 мм1.3 м/с38 %
    18:00Облачно с прояснениями+35°C51 %753 мм1.2 м/с35 %
    21:00Облачно с прояснениями+33°C71 %754 мм5.2 м/с17 %
  • 24июля
    Среда
    +27°
    +38°
    Практически безоблачно
    ВремяПогодаТемператураВлажностьДавлениеВетер, м/сВероятность осадков
    00:00Облачно с прояснениями+31°C80 %756 мм4.6 м/с12 %
    03:00Облачно с прояснениями+30°C82 %755 мм4.9 м/с38 %
    06:00Ясно и безоблачно+29°C83 %755 мм3.1 м/с25 %
    09:00Ясно и безоблачно+29°C77 %756 мм1.6 м/с8 %
    12:00Небольшая облачность+34°C55 %755 мм1.5 м/с20 %
    15:00Практически безоблачно+37°C41 %753 мм2.1 м/с8 %
    18:00Практически безоблачно+37°C40 %751 мм3.6 м/с2 %
    21:00Облачно с прояснениями+34°C58 %754 мм7.0 м/с6 %
  • 25июля
    Четверг
    +27°
    +38°
    Практически безоблачно
    ВремяПогодаТемператураВлажностьДавлениеВетер, м/сВероятность осадков
    00:00Небольшая облачность+32°C73 %755 мм2.6 м/с26 %
    03:00Облачно с прояснениями+30°C79 %753 мм4.9 м/с42 %
    06:00Небольшая облачность+27°C84 %754 мм2.8 м/с21 %
    09:00Облачно с прояснениями+29°C73 %754 мм4.2 м/с11 %
    12:00Практически безоблачно+34°C50 %753 мм4.8 м/с6 %
    15:00Практически безоблачно+37°C38 %751 мм5.5 м/с2 %
    18:00Небольшая облачность+38°C41 %750 мм5.5 м/с2 %
    21:00Небольшая облачность+33°C64 %751 мм7.6 м/с2 %
  • 26июля
    Пятница
    +25°
    +36°
    Ясно и безоблачно
    ВремяПогодаТемператураВлажностьДавлениеВетер, м/сВероятность осадков
    00:00Ясно и безоблачно+32°C67 %752 мм9.3 м/с6 %
    03:00Ясно и безоблачно+30°C74 %752 мм7.2 м/с2 %
    06:00Ясно и безоблачно+28°C84 %751 мм6.1 м/с2 %
    09:00Ясно и безоблачно+28°C74 %752 мм6.2 м/с2 %
    12:00Ясно и безоблачно+34°C47 %752 мм7.5 м/с2 %
    15:00Ясно и безоблачно+36°C32 %750 мм8.5 м/с2 %
    18:00Ясно и безоблачно+35°C36 %749 мм8.5 м/с2 %
    21:00Ясно и безоблачно+33°C52 %751 мм6.4 м/с2 %
Мы используем cookies
Соглашаюсь